sensor_id;sensor_type;location;lat;lon;timestamp;pressure;altitude;pressure_sealevel;temperature;humidity
21357;BME280;10836;53.068;18.234;2023-02-13T00:00:22;102902.69;;;4.34;100.00
21357;BME280;10836;53.068;18.234;2023-02-13T00:03:09;102895.78;;;4.31;100.00
21357;BME280;10836;53.068;18.234;2023-02-13T00:05:36;102902.41;;;4.29;100.00
21357;BME280;10836;53.068;18.234;2023-02-13T00:08:03;102892.59;;;4.28;100.00
21357;BME280;10836;53.068;18.234;2023-02-13T00:10:30;102890.56;;;4.30;100.00
21357;BME280;10836;53.068;18.234;2023-02-13T00:12:57;102896.00;;;4.22;100.00
21357;BME280;10836;53.068;18.234;2023-02-13T00:15:24;102895.84;;;4.23;100.00
21357;BME280;10836;53.068;18.234;2023-02-13T00:17:51;102895.97;;;4.30;100.00
21357;BME280;10836;53.068;18.234;2023-02-13T00:20:18;102893.44;;;4.28;100.00
21357;BME280;10836;53.068;18.234;2023-02-13T00:22:45;102888.53;;;4.32;100.00
21357;BME280;10836;53.068;18.234;2023-02-13T00:25:12;102888.88;;;4.29;100.00
21357;BME280;10836;53.068;18.234;2023-02-13T00:27:39;102894.63;;;4.26;100.00
21357;BME280;10836;53.068;18.234;2023-02-13T00:30:06;102896.69;;;4.24;100.00
21357;BME280;10836;53.068;18.234;2023-02-13T00:32:33;102889.22;;;4.26;100.00
21357;BME280;10836;53.068;18.234;2023-02-13T00:35:00;102883.81;;;4.26;100.00
21357;BME280;10836;53.068;18.234;2023-02-13T00:37:29;102886.34;;;4.27;100.00
21357;BME280;10836;53.068;18.234;2023-02-13T00:39:56;102877.22;;;4.28;100.00
21357;BME280;10836;53.068;18.234;2023-02-13T00:42:23;102883.47;;;4.29;100.00
21357;BME280;10836;53.068;18.234;2023-02-13T00:44:52;102878.81;;;4.15;100.00
21357;BME280;10836;53.068;18.234;2023-02-13T00:47:20;102872.22;;;4.17;100.00
21357;BME280;10836;53.068;18.234;2023-02-13T00:49:48;102872.28;;;4.32;100.00
21357;BME280;10836;53.068;18.234;2023-02-13T00:52:15;102872.50;;;4.22;100.00
21357;BME280;10836;53.068;18.234;2023-02-13T00:54:42;102871.69;;;4.22;100.00
21357;BME280;10836;53.068;18.234;2023-02-13T00:57:11;102873.72;;;4.20;100.00
21357;BME280;10836;53.068;18.234;2023-02-13T00:59:38;102867.59;;;4.26;100.00
21357;BME280;10836;53.068;18.234;2023-02-13T01:02:05;102861.88;;;4.21;100.00
21357;BME280;10836;53.068;18.234;2023-02-13T01:04:32;102866.22;;;4.30;100.00
21357;BME280;10836;53.068;18.234;2023-02-13T01:06:59;102872.28;;;4.32;100.00
21357;BME280;10836;53.068;18.234;2023-02-13T01:09:26;102865.56;;;4.28;100.00
21357;BME280;10836;53.068;18.234;2023-02-13T01:11:53;102861.22;;;4.19;100.00
21357;BME280;10836;53.068;18.234;2023-02-13T01:14:20;102860.50;;;4.25;100.00
21357;BME280;10836;53.068;18.234;2023-02-13T01:16:48;102853.72;;;4.29;100.00
21357;BME280;10836;53.068;18.234;2023-02-13T01:19:15;102854.00;;;4.34;100.00
21357;BME280;10836;53.068;18.234;2023-02-13T01:21:42;102853.75;;;4.21;100.00
21357;BME280;10836;53.068;18.234;2023-02-13T01:24:10;102855.09;;;4.25;100.00
21357;BME280;10836;53.068;18.234;2023-02-13T01:26:37;102852.69;;;4.30;100.00
21357;BME280;10836;53.068;18.234;2023-02-13T01:29:04;102853.72;;;4.29;100.00
21357;BME280;10836;53.068;18.234;2023-02-13T01:31:32;102855.03;;;4.33;100.00
21357;BME280;10836;53.068;18.234;2023-02-13T01:33:59;102861.66;;;4.30;100.00
21357;BME280;10836;53.068;18.234;2023-02-13T01:36:26;102857.13;;;4.23;100.00
21357;BME280;10836;53.068;18.234;2023-02-13T01:38:56;102858.81;;;4.24;100.00
21357;BME280;10836;53.068;18.234;2023-02-13T01:41:25;102858.38;;;4.35;100.00
21357;BME280;10836;53.068;18.234;2023-02-13T01:43:57;102855.66;;;4.35;100.00
21357;BME280;10836;53.068;18.234;2023-02-13T01:48:58;102845.25;;;4.32;100.00
21357;BME280;10836;53.068;18.234;2023-02-13T01:51:30;102849.81;;;4.31;100.00
21357;BME280;10836;53.068;18.234;2023-02-13T01:54:03;102846.25;;;4.31;100.00
21357;BME280;10836;53.068;18.234;2023-02-13T01:56:48;102837.66;;;4.27;100.00
21357;BME280;10836;53.068;18.234;2023-02-13T01:59:19;102850.41;;;4.19;100.00
21357;BME280;10836;53.068;18.234;2023-02-13T02:01:47;102842.72;;;4.30;100.00
21357;BME280;10836;53.068;18.234;2023-02-13T02:04:19;102834.78;;;4.29;100.00
21357;BME280;10836;53.068;18.234;2023-02-13T02:06:52;102828.06;;;4.25;100.00
21357;BME280;10836;53.068;18.234;2023-02-13T02:09:28;102838.22;;;4.23;100.00
21357;BME280;10836;53.068;18.234;2023-02-13T02:14:28;102833.47;;;4.25;100.00
21357;BME280;10836;53.068;18.234;2023-02-13T02:16:56;102829.72;;;4.26;100.00
21357;BME280;10836;53.068;18.234;2023-02-13T02:28:13;102834.97;;;4.27;100.00
21357;BME280;10836;53.068;18.234;2023-02-13T02:33:39;102851.38;;;4.26;100.00
21357;BME280;10836;53.068;18.234;2023-02-13T02:36:18;102839.44;;;4.35;100.00
21357;BME280;10836;53.068;18.234;2023-02-13T02:39:17;102849.81;;;4.31;100.00
21357;BME280;10836;53.068;18.234;2023-02-13T02:42:25;102845.28;;;4.24;100.00
21357;BME280;10836;53.068;18.234;2023-02-13T02:45:18;102841.63;;;4.40;100.00
21357;BME280;10836;53.068;18.234;2023-02-13T02:48:15;102842.81;;;4.37;100.00
21357;BME280;10836;53.068;18.234;2023-02-13T02:51:15;102840.94;;;4.38;100.00
21357;BME280;10836;53.068;18.234;2023-02-13T02:53:56;102837.41;;;4.37;100.00
21357;BME280;10836;53.068;18.234;2023-02-13T02:56:48;102835.66;;;4.44;100.00
21357;BME280;10836;53.068;18.234;2023-02-13T02:59:16;102838.06;;;4.39;100.00
21357;BME280;10836;53.068;18.234;2023-02-13T03:02:05;102841.53;;;4.33;100.00
21357;BME280;10836;53.068;18.234;2023-02-13T03:04:53;102840.56;;;4.26;100.00
21357;BME280;10836;53.068;18.234;2023-02-13T03:07:40;102845.59;;;4.29;100.00
21357;BME280;10836;53.068;18.234;2023-02-13T03:10:14;102844.13;;;4.41;100.00
21357;BME280;10836;53.068;18.234;2023-02-13T03:13:03;102845.34;;;4.39;100.00
21357;BME280;10836;53.068;18.234;2023-02-13T03:15:49;102843.13;;;4.42;100.00
21357;BME280;10836;53.068;18.234;2023-02-13T03:18:38;102848.88;;;4.39;100.00
21357;BME280;10836;53.068;18.234;2023-02-13T03:21:46;102841.06;;;4.44;100.00
21357;BME280;10836;53.068;18.234;2023-02-13T03:24:50;102839.09;;;4.38;100.00
21357;BME280;10836;53.068;18.234;2023-02-13T03:31:11;102838.97;;;4.54;100.00
21357;BME280;10836;53.068;18.234;2023-02-13T03:34:12;102856.28;;;4.45;100.00
21357;BME280;10836;53.068;18.234;2023-02-13T03:42:11;102849.44;;;4.57;100.00
21357;BME280;10836;53.068;18.234;2023-02-13T03:44:45;102854.47;;;4.60;100.00
21357;BME280;10836;53.068;18.234;2023-02-13T03:47:35;102848.22;;;4.60;100.00
21357;BME280;10836;53.068;18.234;2023-02-13T03:50:04;102849.00;;;4.68;100.00
21357;BME280;10836;53.068;18.234;2023-02-13T03:52:44;102857.50;;;4.65;100.00
21357;BME280;10836;53.068;18.234;2023-02-13T03:55:13;102862.97;;;4.57;100.00
21357;BME280;10836;53.068;18.234;2023-02-13T03:58:09;102862.91;;;4.65;100.00
21357;BME280;10836;53.068;18.234;2023-02-13T04:00:58;102860.78;;;4.76;100.00
21357;BME280;10836;53.068;18.234;2023-02-13T04:06:17;102860.41;;;4.79;100.00
21357;BME280;10836;53.068;18.234;2023-02-13T04:08:46;102865.53;;;4.74;100.00
21357;BME280;10836;53.068;18.234;2023-02-13T04:11:33;102860.25;;;4.57;100.00
21357;BME280;10836;53.068;18.234;2023-02-13T04:17:08;102867.22;;;4.75;100.00
21357;BME280;10836;53.068;18.234;2023-02-13T04:19:38;102863.25;;;4.62;100.00
21357;BME280;10836;53.068;18.234;2023-02-13T04:22:05;102869.69;;;4.61;100.00
21357;BME280;10836;53.068;18.234;2023-02-13T04:24:32;102860.78;;;4.76;100.00
21357;BME280;10836;53.068;18.234;2023-02-13T04:26:59;102865.53;;;4.74;100.00
21357;BME280;10836;53.068;18.234;2023-02-13T04:29:26;102864.59;;;4.66;100.00
21357;BME280;10836;53.068;18.234;2023-02-13T04:31:53;102860.22;;;4.80;100.00
21357;BME280;10836;53.068;18.234;2023-02-13T04:34:20;102865.16;;;4.77;100.00
21357;BME280;10836;53.068;18.234;2023-02-13T04:36:47;102854.91;;;4.87;100.00
21357;BME280;10836;53.068;18.234;2023-02-13T04:39:14;102859.31;;;4.88;100.00
21357;BME280;10836;53.068;18.234;2023-02-13T04:41:41;102855.75;;;4.73;100.00
21357;BME280;10836;53.068;18.234;2023-02-13T04:44:08;102856.59;;;4.88;100.00
21357;BME280;10836;53.068;18.234;2023-02-13T04:46:35;102846.13;;;4.85;100.00
21357;BME280;10836;53.068;18.234;2023-02-13T04:49:02;102851.84;;;4.90;100.00
21357;BME280;10836;53.068;18.234;2023-02-13T04:51:29;102848.78;;;4.93;100.00
21357;BME280;10836;53.068;18.234;2023-02-13T04:53:56;102855.28;;;4.84;100.00
21357;BME280;10836;53.068;18.234;2023-02-13T04:56:23;102853.41;;;4.84;100.00
21357;BME280;10836;53.068;18.234;2023-02-13T04:58:50;102852.94;;;4.81;100.00
21357;BME280;10836;53.068;18.234;2023-02-13T05:01:17;102853.97;;;4.80;100.00
21357;BME280;10836;53.068;18.234;2023-02-13T05:03:44;102860.22;;;4.80;100.00
21357;BME280;10836;53.068;18.234;2023-02-13T05:06:11;102867.22;;;4.75;100.00
21357;BME280;10836;53.068;18.234;2023-02-13T05:08:38;102870.97;;;4.74;100.00
21357;BME280;10836;53.068;18.234;2023-02-13T05:11:05;102872.25;;;4.78;100.00
21357;BME280;10836;53.068;18.234;2023-02-13T05:13:32;102864.44;;;4.83;100.00
21357;BME280;10836;53.068;18.234;2023-02-13T05:15:59;102861.22;;;4.64;100.00
21357;BME280;10836;53.068;18.234;2023-02-13T05:18:26;102860.69;;;4.84;100.00
21357;BME280;10836;53.068;18.234;2023-02-13T05:20:54;102865.91;;;4.71;100.00
21357;BME280;10836;53.068;18.234;2023-02-13T05:23:39;102858.81;;;4.70;100.00
21357;BME280;10836;53.068;18.234;2023-02-13T05:26:06;102860.84;;;4.67;100.00
21357;BME280;10836;53.068;18.234;2023-02-13T05:28:33;102866.75;;;4.71;100.00
21357;BME280;10836;53.068;18.234;2023-02-13T05:31:18;102868.06;;;4.52;100.00
21357;BME280;10836;53.068;18.234;2023-02-13T05:33:46;102868.63;;;4.71;100.00
21357;BME280;10836;53.068;18.234;2023-02-13T05:36:12;102868.97;;;4.67;100.00
21357;BME280;10836;53.068;18.234;2023-02-13T05:38:39;102872.03;;;4.64;100.00
21357;BME280;10836;53.068;18.234;2023-02-13T05:41:06;102881.31;;;4.70;100.00
21357;BME280;10836;53.068;18.234;2023-02-13T05:43:34;102872.03;;;4.64;100.00
21357;BME280;10836;53.068;18.234;2023-02-13T05:46:05;102870.72;;;4.60;100.00
21357;BME280;10836;53.068;18.234;2023-02-13T05:48:33;102863.81;;;4.58;100.00
21357;BME280;10836;53.068;18.234;2023-02-13T05:51:00;102852.81;;;4.59;100.00
21357;BME280;10836;53.068;18.234;2023-02-13T05:53:27;102857.00;;;4.62;100.00
21357;BME280;10836;53.068;18.234;2023-02-13T05:55:55;102850.75;;;4.61;100.00
21357;BME280;10836;53.068;18.234;2023-02-13T05:58:22;102863.63;;;4.59;100.00
21357;BME280;10836;53.068;18.234;2023-02-13T06:00:49;102864.16;;;4.55;100.00
21357;BME280;10836;53.068;18.234;2023-02-13T06:03:16;102864.66;;;4.58;100.00
21357;BME280;10836;53.068;18.234;2023-02-13T06:05:43;102865.06;;;4.47;100.00
21357;BME280;10836;53.068;18.234;2023-02-13T06:08:10;102869.41;;;4.56;100.00
21357;BME280;10836;53.068;18.234;2023-02-13T06:10:37;102861.94;;;4.58;100.00
21357;BME280;10836;53.068;18.234;2023-02-13T06:13:04;102856.75;;;4.49;100.00
21357;BME280;10836;53.068;18.234;2023-02-13T06:15:31;102855.91;;;4.48;100.00
21357;BME280;10836;53.068;18.234;2023-02-13T06:17:58;102859.66;;;4.47;100.00
21357;BME280;10836;53.068;18.234;2023-02-13T06:20:25;102858.88;;;4.39;100.00
21357;BME280;10836;53.068;18.234;2023-02-13T06:22:53;102870.41;;;4.55;100.00
21357;BME280;10836;53.068;18.234;2023-02-13T06:25:20;102874.19;;;4.46;100.00
21357;BME280;10836;53.068;18.234;2023-02-13T06:27:47;102873.19;;;4.47;100.00
21357;BME280;10836;53.068;18.234;2023-02-13T06:30:15;102880.69;;;4.37;100.00
21357;BME280;10836;53.068;18.234;2023-02-13T06:32:43;102877.94;;;4.45;100.00
21357;BME280;10836;53.068;18.234;2023-02-13T06:35:11;102882.00;;;4.41;100.00
21357;BME280;10836;53.068;18.234;2023-02-13T06:37:38;102885.72;;;4.40;100.00
21357;BME280;10836;53.068;18.234;2023-02-13T06:40:06;102888.63;;;4.39;100.00
21357;BME280;10836;53.068;18.234;2023-02-13T06:42:33;102895.19;;;4.44;100.00
21357;BME280;10836;53.068;18.234;2023-02-13T06:45:00;102884.06;;;4.39;100.00
21357;BME280;10836;53.068;18.234;2023-02-13T06:47:27;102887.06;;;4.44;100.00
21357;BME280;10836;53.068;18.234;2023-02-13T06:49:54;102882.50;;;4.45;100.00
21357;BME280;10836;53.068;18.234;2023-02-13T06:52:21;102880.81;;;4.44;100.00
21357;BME280;10836;53.068;18.234;2023-02-13T06:54:48;102885.16;;;4.30;100.00
21357;BME280;10836;53.068;18.234;2023-02-13T06:57:15;102886.00;;;4.30;100.00
21357;BME280;10836;53.068;18.234;2023-02-13T06:59:42;102891.13;;;4.17;100.00
21357;BME280;10836;53.068;18.234;2023-02-13T07:02:10;102891.94;;;4.26;100.00
21357;BME280;10836;53.068;18.234;2023-02-13T07:04:37;102894.50;;;4.19;100.00
21357;BME280;10836;53.068;18.234;2023-02-13T07:07:04;102898.06;;;4.20;100.00
21357;BME280;10836;53.068;18.234;2023-02-13T07:09:31;102896.31;;;4.27;100.00
21357;BME280;10836;53.068;18.234;2023-02-13T07:12:03;102890.44;;;4.23;100.00
21357;BME280;10836;53.068;18.234;2023-02-13T07:14:30;102895.97;;;4.30;100.00
21357;BME280;10836;53.068;18.234;2023-02-13T07:16:58;102887.78;;;4.38;100.00
21357;BME280;10836;53.068;18.234;2023-02-13T07:19:24;102898.94;;;4.35;100.00
21357;BME280;10836;53.068;18.234;2023-02-13T07:21:51;102893.19;;;4.38;100.00
21357;BME280;10836;53.068;18.234;2023-02-13T07:24:18;102886.09;;;4.37;100.00
21357;BME280;10836;53.068;18.234;2023-02-13T07:26:45;102890.13;;;4.41;100.00
21357;BME280;10836;53.068;18.234;2023-02-13T07:29:12;102890.06;;;4.49;100.00
21357;BME280;10836;53.068;18.234;2023-02-13T07:31:39;102889.72;;;4.52;100.00
21357;BME280;10836;53.068;18.234;2023-02-13T07:34:06;102893.75;;;4.56;100.00
21357;BME280;10836;53.068;18.234;2023-02-13T07:36:34;102887.44;;;4.64;100.00
21357;BME280;10836;53.068;18.234;2023-02-13T07:39:00;102884.59;;;4.57;100.00
21357;BME280;10836;53.068;18.234;2023-02-13T07:41:27;102892.00;;;4.63;100.00
21357;BME280;10836;53.068;18.234;2023-02-13T07:43:55;102896.41;;;4.64;100.00
21357;BME280;10836;53.068;18.234;2023-02-13T07:46:22;102891.03;;;4.56;100.00
21357;BME280;10836;53.068;18.234;2023-02-13T07:48:51;102890.44;;;4.69;100.00
21357;BME280;10836;53.068;18.234;2023-02-13T07:51:18;102896.56;;;4.63;100.00
21357;BME280;10836;53.068;18.234;2023-02-13T07:53:45;102885.63;;;4.56;100.00
21357;BME280;10836;53.068;18.234;2023-02-13T07:56:12;102885.56;;;4.64;100.00
21357;BME280;10836;53.068;18.234;2023-02-13T07:58:39;102876.72;;;4.71;100.00
21357;BME280;10836;53.068;18.234;2023-02-13T08:01:08;102873.09;;;4.78;100.00
21357;BME280;10836;53.068;18.234;2023-02-13T08:03:35;102872.25;;;4.78;100.00
21357;BME280;10836;53.068;18.234;2023-02-13T08:06:03;102856.97;;;4.85;100.00
21357;BME280;10836;53.068;18.234;2023-02-13T08:08:31;102860.31;;;4.87;100.00
21357;BME280;10836;53.068;18.234;2023-02-13T08:11:04;102856.47;;;4.81;100.00
21357;BME280;10836;53.068;18.234;2023-02-13T08:13:50;102862.66;;;4.90;100.00
21357;BME280;10836;53.068;18.234;2023-02-13T08:16:17;102862.25;;;5.01;100.00
21357;BME280;10836;53.068;18.234;2023-02-13T08:18:44;102868.84;;;4.98;100.00
21357;BME280;10836;53.068;18.234;2023-02-13T08:21:11;102863.63;;;4.97;100.00
21357;BME280;10836;53.068;18.234;2023-02-13T08:23:40;102862.97;;;4.95;100.00
21357;BME280;10836;53.068;18.234;2023-02-13T08:26:07;102848.13;;;4.91;100.00
21357;BME280;10836;53.068;18.234;2023-02-13T08:28:34;102838.88;;;5.00;100.00
21357;BME280;10836;53.068;18.234;2023-02-13T08:31:09;102849.34;;;5.03;100.00
21357;BME280;10836;53.068;18.234;2023-02-13T08:33:37;102842.06;;;5.04;100.00
21357;BME280;10836;53.068;18.234;2023-02-13T08:36:06;102846.84;;;5.01;100.00
21357;BME280;10836;53.068;18.234;2023-02-13T08:38:33;102848.50;;;5.03;100.00
21357;BME280;10836;53.068;18.234;2023-02-13T08:41:00;102843.50;;;5.14;100.00
21357;BME280;10836;53.068;18.234;2023-02-13T08:43:27;102839.19;;;5.20;100.00
21357;BME280;10836;53.068;18.234;2023-02-13T08:45:57;102834.22;;;5.23;100.00
21357;BME280;10836;53.068;18.234;2023-02-13T08:48:26;102838.91;;;5.15;100.00
21357;BME280;10836;53.068;18.234;2023-02-13T08:50:53;102834.53;;;5.14;100.00
21357;BME280;10836;53.068;18.234;2023-02-13T08:53:20;102836.41;;;5.13;100.00
21357;BME280;10836;53.068;18.234;2023-02-13T08:55:54;102833.38;;;5.23;100.00
21357;BME280;10836;53.068;18.234;2023-02-13T08:58:22;102835.91;;;5.24;100.00
21357;BME280;10836;53.068;18.234;2023-02-13T09:00:50;102827.44;;;5.13;100.00
21357;BME280;10836;53.068;18.234;2023-02-13T09:03:17;102835.38;;;5.14;100.00
21357;BME280;10836;53.068;18.234;2023-02-13T09:05:45;102842.28;;;5.31;100.00
21357;BME280;10836;53.068;18.234;2023-02-13T09:08:13;102842.28;;;5.31;100.00
21357;BME280;10836;53.068;18.234;2023-02-13T09:10:41;102845.63;;;5.33;100.00
21357;BME280;10836;53.068;18.234;2023-02-13T09:13:09;102844.41;;;5.36;100.00
21357;BME280;10836;53.068;18.234;2023-02-13T09:15:38;102847.31;;;5.34;100.00
21357;BME280;10836;53.068;18.234;2023-02-13T09:18:06;102835.16;;;5.30;100.00
21357;BME280;10836;53.068;18.234;2023-02-13T09:20:33;102848.91;;;5.29;100.00
21357;BME280;10836;53.068;18.234;2023-02-13T09:23:02;102850.09;;;5.26;100.00
21357;BME280;10836;53.068;18.234;2023-02-13T09:25:29;102857.41;;;5.41;100.00
21357;BME280;10836;53.068;18.234;2023-02-13T09:27:58;102849.38;;;5.32;100.00
21357;BME280;10836;53.068;18.234;2023-02-13T09:30:25;102856.19;;;5.43;100.00
21357;BME280;10836;53.068;18.234;2023-02-13T09:32:53;102853.09;;;5.31;100.00
21357;BME280;10836;53.068;18.234;2023-02-13T09:35:21;102847.03;;;5.44;100.00
21357;BME280;10836;53.068;18.234;2023-02-13T09:37:49;102858.34;;;5.48;100.00
21357;BME280;10836;53.068;18.234;2023-02-13T09:40:21;102852.94;;;5.48;100.00
21357;BME280;10836;53.068;18.234;2023-02-13T09:42:51;102858.44;;;5.40;100.00
21357;BME280;10836;53.068;18.234;2023-02-13T09:45:20;102852.84;;;5.56;100.00
21357;BME280;10836;53.068;18.234;2023-02-13T09:47:48;102859.38;;;5.61;100.00
21357;BME280;10836;53.068;18.234;2023-02-13T09:50:24;102840.38;;;5.76;100.00
21357;BME280;10836;53.068;18.234;2023-02-13T09:52:54;102851.22;;;5.76;100.00
21357;BME280;10836;53.068;18.234;2023-02-13T09:55:32;102847.47;;;5.77;100.00
21357;BME280;10836;53.068;18.234;2023-02-13T10:00:45;102849.44;;;5.98;100.00
21357;BME280;10836;53.068;18.234;2023-02-13T10:06:10;102856.75;;;6.19;100.00
21357;BME280;10836;53.068;18.234;2023-02-13T10:12:12;102851.47;;;6.32;100.00
21357;BME280;10836;53.068;18.234;2023-02-13T10:17:23;102847.56;;;6.20;100.00
21357;BME280;10836;53.068;18.234;2023-02-13T10:20:04;102848.56;;;6.33;100.00
21357;BME280;10836;53.068;18.234;2023-02-13T10:22:41;102854.00;;;6.33;100.00
21357;BME280;10836;53.068;18.234;2023-02-13T10:27:53;102859.47;;;6.19;100.00
21357;BME280;10836;53.068;18.234;2023-02-13T10:30:27;102858.44;;;6.20;100.00
21357;BME280;10836;53.068;18.234;2023-02-13T10:33:11;102850.44;;;6.33;100.00
21357;BME280;10836;53.068;18.234;2023-02-13T10:38:31;102851.84;;;6.29;100.00
21357;BME280;10836;53.068;18.234;2023-02-13T10:41:22;102852.88;;;6.28;100.00
21357;BME280;10836;53.068;18.234;2023-02-13T10:46:50;102847.19;;;6.23;100.00
21357;BME280;10836;53.068;18.234;2023-02-13T10:49:27;102839.16;;;6.15;100.00
21357;BME280;10836;53.068;18.234;2023-02-13T10:55:12;102840.84;;;6.16;100.00
21357;BME280;10836;53.068;18.234;2023-02-13T11:00:36;102842.53;;;6.17;100.00
21357;BME280;10836;53.068;18.234;2023-02-13T11:03:20;102846.34;;;6.22;100.00
21357;BME280;10836;53.068;18.234;2023-02-13T11:05:49;102841.91;;;6.36;100.00
21357;BME280;10836;53.068;18.234;2023-02-13T11:08:31;102837.84;;;6.25;100.00
21357;BME280;10836;53.068;18.234;2023-02-13T11:10:59;102825.56;;;6.29;100.00
21357;BME280;10836;53.068;18.234;2023-02-13T11:13:28;102831.31;;;6.20;100.00
21357;BME280;10836;53.068;18.234;2023-02-13T11:16:08;102822.25;;;6.13;100.00
21357;BME280;10836;53.068;18.234;2023-02-13T11:18:38;102831.31;;;6.20;100.00
21357;BME280;10836;53.068;18.234;2023-02-13T11:21:21;102828.53;;;6.34;100.00
21357;BME280;10836;53.068;18.234;2023-02-13T11:23:51;102833.13;;;6.34;100.00
21357;BME280;10836;53.068;18.234;2023-02-13T11:26:32;102818.91;;;6.32;100.00
21357;BME280;10836;53.068;18.234;2023-02-13T11:29:04;102826.03;;;6.33;100.00
21357;BME280;10836;53.068;18.234;2023-02-13T11:31:33;102822.66;;;6.31;100.00
21357;BME280;10836;53.068;18.234;2023-02-13T11:34:23;102824.22;;;6.40;100.00
21357;BME280;10836;53.068;18.234;2023-02-13T11:36:52;102829.38;;;6.35;100.00
21357;BME280;10836;53.068;18.234;2023-02-13T11:39:21;102825.91;;;6.41;100.00
21357;BME280;10836;53.068;18.234;2023-02-13T11:41:49;102822.28;;;6.34;100.00
21357;BME280;10836;53.068;18.234;2023-02-13T11:44:25;102813.16;;;6.42;100.00
21357;BME280;10836;53.068;18.234;2023-02-13T11:46:55;102818.13;;;6.38;100.00
21357;BME280;10836;53.068;18.234;2023-02-13T11:49:25;102821.69;;;6.39;100.00
21357;BME280;10836;53.068;18.234;2023-02-13T11:52:00;102830.53;;;6.26;100.00
21357;BME280;10836;53.068;18.234;2023-02-13T11:54:42;102821.38;;;6.27;100.00
21357;BME280;10836;53.068;18.234;2023-02-13T11:57:19;102810.50;;;6.27;100.00
21357;BME280;10836;53.068;18.234;2023-02-13T11:59:50;102808.44;;;6.29;100.00
21357;BME280;10836;53.068;18.234;2023-02-13T12:02:20;102806.84;;;6.34;100.00
21357;BME280;10836;53.068;18.234;2023-02-13T12:07:35;102796.88;;;6.42;100.00
21357;BME280;10836;53.068;18.234;2023-02-13T12:10:15;102795.22;;;6.41;100.00
21357;BME280;10836;53.068;18.234;2023-02-13T12:15:34;102792.75;;;6.46;100.00
21357;BME280;10836;53.068;18.234;2023-02-13T12:18:22;102785.00;;;6.43;100.00
21357;BME280;10836;53.068;18.234;2023-02-13T12:20:53;102781.91;;;6.46;100.00
21357;BME280;10836;53.068;18.234;2023-02-13T12:31:41;102755.41;;;6.26;100.00
21357;BME280;10836;53.068;18.234;2023-02-13T12:34:30;102754.56;;;6.26;100.00
21357;BME280;10836;53.068;18.234;2023-02-13T12:40:01;102745.66;;;6.32;100.00
21357;BME280;10836;53.068;18.234;2023-02-13T12:43:11;102743.97;;;6.31;100.00
21357;BME280;10836;53.068;18.234;2023-02-13T13:05:31;102749.91;;;6.20;100.00
21357;BME280;10836;53.068;18.234;2023-02-13T13:22:10;102762.91;;;6.24;100.00
21357;BME280;10836;53.068;18.234;2023-02-13T13:27:48;102767.50;;;6.24;100.00
21357;BME280;10836;53.068;18.234;2023-02-13T13:30:27;102763.22;;;6.15;100.00
21357;BME280;10836;53.068;18.234;2023-02-13T13:33:00;102759.59;;;6.08;100.00
21357;BME280;10836;53.068;18.234;2023-02-13T13:35:29;102761.09;;;6.10;100.00
21357;BME280;10836;53.068;18.234;2023-02-13T13:46:39;102751.03;;;6.04;100.00
21357;BME280;10836;53.068;18.234;2023-02-13T13:49:28;102760.63;;;6.07;100.00
21357;BME280;10836;53.068;18.234;2023-02-13T13:54:53;102749.06;;;6.19;100.00
21357;BME280;10836;53.068;18.234;2023-02-13T14:05:27;102765.88;;;6.08;100.00
21357;BME280;10836;53.068;18.234;2023-02-13T14:08:00;102768.78;;;6.28;100.00
21357;BME280;10836;53.068;18.234;2023-02-13T14:22:40;102776.91;;;5.71;100.00
21357;BME280;10836;53.068;18.234;2023-02-13T14:25:21;102773.25;;;5.78;100.00
21357;BME280;10836;53.068;18.234;2023-02-13T14:28:01;102778.13;;;5.68;100.00
21357;BME280;10836;53.068;18.234;2023-02-13T14:30:32;102781.50;;;5.70;100.00
21357;BME280;10836;53.068;18.234;2023-02-13T14:33:02;102766.91;;;5.71;100.00
21357;BME280;10836;53.068;18.234;2023-02-13T14:35:36;102759.03;;;5.76;100.00
21357;BME280;10836;53.068;18.234;2023-02-13T14:38:06;102760.91;;;5.90;100.00
